createdAt,value
2023-02-06T00:00:53.840Z,84.59
2023-02-06T00:03:20.761Z,84.68
2023-02-06T00:05:58.062Z,84.44
2023-02-06T00:08:26.270Z,84.75
2023-02-06T00:10:53.343Z,85.80
2023-02-06T00:13:20.548Z,85.41
2023-02-06T00:15:47.625Z,85.93
2023-02-06T00:18:14.582Z,86.26
2023-02-06T00:20:41.443Z,85.53
2023-02-06T00:23:08.273Z,85.94
2023-02-06T00:25:35.412Z,86.51
2023-02-06T00:28:02.546Z,86.10
2023-02-06T00:30:29.557Z,85.87
2023-02-06T00:32:56.454Z,85.92
2023-02-06T00:35:23.263Z,85.32
2023-02-06T00:37:51.046Z,84.52
2023-02-06T00:40:18.927Z,84.73
2023-02-06T00:42:45.848Z,84.80
2023-02-06T00:45:13.146Z,84.24
2023-02-06T00:47:41.137Z,85.06
2023-02-06T00:50:09.892Z,84.46
2023-02-06T00:52:36.792Z,83.33
2023-02-06T00:55:05.116Z,84.49
2023-02-06T00:57:31.969Z,85.05
2023-02-06T00:59:58.813Z,83.97
2023-02-06T01:02:26.906Z,83.65
2023-02-06T01:04:53.756Z,83.48
2023-02-06T01:07:20.660Z,84.08
2023-02-06T01:09:47.539Z,83.46
2023-02-06T01:12:14.409Z,83.72
2023-02-06T01:14:41.183Z,84.38
2023-02-06T01:17:10.709Z,82.99
2023-02-06T01:19:39.250Z,83.62
2023-02-06T01:22:06.936Z,84.26
2023-02-06T01:24:34.854Z,83.74
2023-02-06T01:27:01.807Z,84.15
2023-02-06T01:29:28.581Z,83.89
2023-02-06T01:31:56.142Z,83.42
2023-02-06T01:34:22.996Z,82.95
2023-02-06T01:36:49.896Z,83.19
2023-02-06T01:39:16.851Z,82.70
2023-02-06T01:41:43.687Z,82.36
2023-02-06T01:44:24.768Z,82.86
2023-02-06T01:46:54.373Z,83.08
2023-02-06T01:49:25.500Z,81.57
2023-02-06T01:51:56.325Z,82.46
2023-02-06T01:54:24.051Z,83.04
2023-02-06T01:56:56.526Z,82.88
2023-02-06T01:59:24.967Z,83.01
2023-02-06T02:01:52.196Z,82.47
2023-02-06T02:04:24.489Z,82.53
2023-02-06T02:07:04.466Z,82.68
2023-02-06T02:09:32.102Z,82.72
2023-02-06T02:11:58.966Z,82.87
2023-02-06T02:14:25.955Z,82.24
2023-02-06T02:17:15.427Z,82.70
2023-02-06T02:19:54.446Z,83.06
2023-02-06T02:22:50.604Z,82.07
2023-02-06T02:25:42.387Z,82.99
2023-02-06T02:28:30.969Z,83.24
2023-02-06T02:30:57.867Z,81.85
2023-02-06T02:33:36.815Z,82.77
2023-02-06T02:36:26.299Z,82.88
2023-02-06T02:38:59.893Z,82.13
2023-02-06T02:41:57.089Z,82.91
2023-02-06T02:44:48.801Z,82.74
2023-02-06T02:47:19.618Z,82.17
2023-02-06T02:49:47.403Z,82.88
2023-02-06T02:52:15.029Z,82.58
2023-02-06T02:54:41.858Z,82.16
2023-02-06T02:57:14.820Z,82.43
2023-02-06T02:59:46.506Z,83.13
2023-02-06T03:02:21.563Z,81.80
2023-02-06T03:04:56.573Z,82.49
2023-02-06T03:07:37.941Z,83.13
2023-02-06T03:10:27.974Z,81.50
2023-02-06T03:27:47.154Z,83.09
2023-02-06T03:30:16.674Z,83.13
2023-02-06T03:32:49.558Z,83.01
2023-02-06T03:35:29.349Z,82.47
2023-02-06T03:37:56.487Z,82.67
2023-02-06T03:40:24.654Z,82.77
2023-02-06T03:42:56.355Z,81.38
2023-02-06T03:45:28.524Z,81.72
2023-02-06T03:47:58.834Z,82.46
2023-02-06T03:50:28.472Z,82.27
2023-02-06T03:52:58.234Z,82.21
2023-02-06T03:55:25.709Z,82.85
2023-02-06T03:58:00.579Z,82.64
2023-02-06T04:00:30.908Z,81.43
2023-02-06T04:02:59.468Z,82.70
2023-02-06T04:05:26.758Z,82.75
2023-02-06T04:07:56.559Z,81.80
2023-02-06T04:10:26.199Z,82.65
2023-02-06T04:12:53.671Z,82.25
2023-02-06T04:15:20.731Z,82.17
2023-02-06T04:17:59.435Z,81.77
2023-02-06T04:20:27.374Z,82.69
2023-02-06T04:22:54.439Z,82.94
2023-02-06T04:25:21.505Z,80.61
2023-02-06T04:27:48.559Z,81.11
2023-02-06T04:30:15.791Z,81.10
2023-02-06T04:32:42.721Z,81.85
2023-02-06T04:35:10.049Z,81.45
2023-02-06T04:37:37.755Z,81.48
2023-02-06T04:40:05.630Z,81.78
2023-02-06T04:42:32.653Z,81.17
2023-02-06T04:44:59.533Z,81.15
2023-02-06T04:47:26.385Z,81.96
2023-02-06T04:49:53.325Z,82.00
2023-02-06T04:52:20.373Z,81.47
2023-02-06T04:54:47.387Z,82.39
2023-02-06T04:57:14.302Z,83.01
2023-02-06T04:59:41.192Z,81.87
2023-02-06T05:02:08.066Z,82.45
2023-02-06T05:04:35.059Z,82.70
2023-02-06T05:07:03.071Z,82.96
2023-02-06T05:09:31.404Z,82.37
2023-02-06T05:11:58.342Z,83.28
2023-02-06T05:14:25.205Z,82.62
2023-02-06T05:16:52.122Z,81.89
2023-02-06T05:19:18.956Z,81.88
2023-02-06T05:21:45.830Z,81.98
2023-02-06T05:24:12.988Z,82.76
2023-02-06T05:26:39.906Z,81.16
2023-02-06T05:29:07.006Z,81.76
2023-02-06T05:31:33.917Z,81.99
2023-02-06T05:34:00.852Z,82.44
2023-02-06T05:36:29.318Z,82.09
2023-02-06T05:38:56.259Z,81.62
2023-02-06T05:41:23.159Z,82.11
2023-02-06T05:43:50.322Z,80.96
2023-02-06T05:46:17.282Z,81.98
2023-02-06T05:48:44.137Z,81.96
2023-02-06T05:51:11.087Z,80.96
2023-02-06T05:53:38.036Z,80.99
2023-02-06T05:56:05.457Z,80.22
2023-02-06T05:58:32.480Z,77.91
2023-02-06T06:00:59.532Z,78.76
2023-02-06T06:03:26.501Z,78.60
2023-02-06T06:05:54.415Z,78.33
2023-02-06T06:08:22.194Z,78.56
2023-02-06T06:10:52.695Z,77.67
2023-02-06T06:13:19.699Z,77.98
2023-02-06T06:15:50.926Z,77.12
2023-02-06T06:18:19.067Z,77.71
2023-02-06T06:20:46.356Z,78.10
2023-02-06T06:23:13.374Z,77.42
2023-02-06T06:25:40.159Z,79.27
2023-02-06T06:28:07.289Z,75.14
2023-02-06T06:30:35.680Z,75.06
2023-02-06T06:33:02.718Z,75.22
2023-02-06T06:35:29.774Z,76.33
2023-02-06T06:37:56.832Z,78.93
2023-02-06T06:40:23.760Z,77.77
2023-02-06T06:42:50.731Z,79.07
2023-02-06T06:45:17.741Z,79.46
2023-02-06T06:47:44.713Z,79.58
2023-02-06T06:50:11.637Z,79.25
2023-02-06T06:52:38.543Z,74.28
2023-02-06T06:55:05.664Z,75.85
2023-02-06T06:57:32.629Z,72.60
2023-02-06T06:59:59.532Z,72.50
2023-02-06T07:02:28.689Z,73.56
2023-02-06T07:04:56.039Z,74.48
2023-02-06T07:07:23.009Z,77.29
2023-02-06T07:09:49.888Z,76.84
2023-02-06T07:12:16.719Z,78.48
2023-02-06T07:14:43.603Z,79.21
2023-02-06T07:17:10.520Z,77.69
2023-02-06T07:19:37.505Z,80.03
2023-02-06T07:22:04.517Z,80.28
2023-02-06T07:24:31.373Z,80.53
2023-02-06T07:26:58.247Z,80.80
2023-02-06T07:29:25.372Z,79.50
2023-02-06T07:31:52.346Z,80.21
2023-02-06T07:34:19.274Z,81.15
2023-02-06T07:36:46.715Z,80.38
2023-02-06T07:39:13.579Z,81.87
2023-02-06T07:41:40.495Z,80.97
2023-02-06T07:44:07.429Z,81.81
2023-02-06T07:46:34.822Z,80.67
2023-02-06T07:49:01.851Z,81.21
2023-02-06T07:51:29.159Z,80.24
2023-02-06T07:53:56.132Z,79.29
2023-02-06T07:56:25.804Z,75.67
2023-02-06T07:58:54.210Z,69.18
2023-02-06T08:01:22.892Z,68.73
2023-02-06T08:03:51.700Z,63.68
2023-02-06T08:06:19.763Z,63.86
2023-02-06T08:08:46.924Z,59.92
2023-02-06T08:11:16.590Z,55.94
2023-02-06T08:13:46.523Z,55.29
2023-02-06T08:16:18.690Z,51.24
2023-02-06T08:18:46.142Z,55.52
2023-02-06T08:21:18.762Z,58.18
2023-02-06T08:23:45.674Z,56.77
2023-02-06T08:26:17.878Z,57.86
2023-02-06T08:28:47.313Z,53.15
2023-02-06T08:31:20.022Z,58.07
2023-02-06T08:33:47.098Z,52.94
2023-02-06T08:36:15.118Z,52.03
2023-02-06T08:38:41.986Z,49.51
2023-02-06T08:41:37.189Z,51.39
2023-02-06T08:44:05.516Z,51.19
2023-02-06T08:46:33.055Z,47.54
2023-02-06T08:49:05.255Z,48.74
2023-02-06T08:51:34.227Z,45.55
2023-02-06T08:54:04.035Z,45.03
2023-02-06T08:56:32.789Z,48.43
2023-02-06T08:59:00.162Z,47.32
2023-02-06T09:01:29.033Z,48.87
2023-02-06T09:03:57.972Z,48.14
2023-02-06T09:06:25.715Z,51.03
2023-02-06T09:08:53.547Z,52.80
2023-02-06T09:11:22.541Z,52.29
2023-02-06T09:13:49.901Z,53.04
2023-02-06T09:16:19.798Z,49.36
2023-02-06T09:18:47.928Z,49.65
2023-02-06T09:21:17.803Z,48.41
2023-02-06T09:23:49.878Z,49.46
2023-02-06T09:26:20.478Z,53.28
2023-02-06T09:28:47.758Z,54.81
2023-02-06T09:31:14.852Z,57.17
2023-02-06T09:33:41.703Z,57.81
2023-02-06T09:36:14.671Z,60.04
2023-02-06T09:38:44.438Z,60.58
2023-02-06T09:41:26.461Z,61.90
2023-02-06T09:44:06.700Z,63.77
2023-02-06T09:46:37.125Z,61.53
2023-02-06T09:49:12.699Z,61.09
2023-02-06T09:52:12.774Z,61.43
2023-02-06T09:55:00.761Z,60.33
2023-02-06T09:58:01.381Z,61.65
2023-02-06T10:00:49.877Z,60.09
2023-02-06T10:03:35.146Z,62.18
2023-02-06T10:06:25.437Z,60.49
2023-02-06T10:09:03.509Z,59.75
2023-02-06T10:11:57.146Z,59.87
2023-02-06T10:14:45.216Z,57.55
2023-02-06T10:17:25.322Z,59.06
2023-02-06T10:20:03.511Z,56.83
2023-02-06T10:22:40.298Z,58.12
2023-02-06T10:25:38.084Z,57.21
2023-02-06T10:28:26.573Z,57.32
2023-02-06T10:31:15.104Z,59.63
2023-02-06T10:34:02.166Z,59.46
2023-02-06T10:36:41.469Z,60.91
2023-02-06T10:39:28.533Z,59.80
2023-02-06T10:42:06.148Z,61.40
2023-02-06T10:45:06.510Z,62.06
2023-02-06T10:47:49.483Z,62.24
2023-02-06T10:50:19.557Z,62.55
2023-02-06T10:52:46.946Z,61.47
2023-02-06T10:55:24.845Z,62.07
2023-02-06T10:58:16.429Z,62.64
2023-02-06T11:00:46.162Z,61.35
2023-02-06T11:03:20.925Z,61.71
2023-02-06T11:05:48.347Z,57.38
2023-02-06T11:08:32.662Z,56.16
2023-02-06T11:11:18.265Z,59.24
2023-02-06T11:13:48.622Z,60.55
2023-02-06T11:16:22.159Z,60.87
2023-02-06T11:18:50.389Z,53.73
2023-02-06T11:21:46.057Z,51.49
2023-02-06T11:24:15.667Z,53.72
2023-02-06T11:26:46.793Z,54.82
2023-02-06T11:29:29.969Z,59.30
2023-02-06T11:32:00.562Z,58.78
2023-02-06T11:34:33.555Z,62.08
2023-02-06T11:37:02.097Z,62.48
2023-02-06T11:39:37.932Z,61.79
2023-02-06T11:42:22.800Z,63.71
2023-02-06T11:44:49.611Z,63.45
2023-02-06T11:47:37.585Z,64.96
2023-02-06T11:50:13.773Z,61.51
2023-02-06T11:52:44.252Z,62.77
2023-02-06T11:55:23.457Z,60.44
2023-02-06T11:58:14.540Z,62.86
2023-02-06T12:01:05.861Z,60.46
2023-02-06T12:03:35.163Z,61.24
2023-02-06T12:06:14.046Z,66.70
2023-02-06T12:08:54.252Z,65.74
2023-02-06T12:11:26.451Z,65.00
2023-02-06T12:14:02.660Z,60.30
2023-02-06T12:16:30.349Z,64.81
2023-02-06T12:18:59.912Z,62.88
2023-02-06T12:21:56.188Z,61.85
2023-02-06T12:24:37.629Z,62.15
2023-02-06T12:27:17.078Z,59.18
2023-02-06T12:29:51.450Z,60.41
2023-02-06T12:32:23.319Z,60.49
2023-02-06T12:35:00.556Z,63.15
2023-02-06T12:37:42.566Z,63.58
2023-02-06T12:41:06.782Z,64.63
2023-02-06T12:43:35.823Z,64.49
2023-02-06T12:46:09.132Z,65.30
2023-02-06T12:48:54.931Z,65.79
2023-02-06T12:51:45.230Z,65.56
2023-02-06T12:54:20.224Z,67.62
2023-02-06T12:56:49.228Z,66.86
2023-02-06T12:59:57.516Z,67.23
2023-02-06T13:02:41.928Z,66.11
2023-02-06T13:05:22.232Z,66.89
2023-02-06T13:07:50.921Z,66.08
2023-02-06T13:10:25.050Z,65.88
2023-02-06T13:12:57.008Z,65.14
2023-02-06T13:15:27.262Z,64.67
2023-02-06T13:17:55.815Z,64.63
2023-02-06T13:20:25.776Z,63.78
2023-02-06T13:22:52.845Z,64.55
2023-02-06T13:25:25.947Z,63.88
2023-02-06T13:27:54.553Z,64.35
2023-02-06T13:30:24.024Z,64.66
2023-02-06T13:32:51.355Z,63.86
2023-02-06T13:35:22.616Z,65.32
2023-02-06T13:37:51.698Z,66.10
2023-02-06T13:40:30.842Z,66.10
2023-02-06T13:43:03.805Z,67.04
2023-02-06T13:45:36.761Z,67.29
2023-02-06T13:48:10.205Z,67.91
2023-02-06T13:51:16.872Z,67.38
2023-02-06T13:54:08.246Z,68.20
2023-02-06T13:57:00.022Z,67.71
2023-02-06T13:59:34.868Z,68.92
2023-02-06T14:02:10.789Z,67.99
2023-02-06T14:04:38.268Z,68.30
2023-02-06T14:07:23.266Z,68.40
2023-02-06T14:09:53.145Z,68.14
2023-02-06T14:12:55.765Z,68.23
2023-02-06T14:15:33.111Z,68.26
2023-02-06T14:18:38.454Z,70.00
2023-02-06T14:21:17.359Z,69.19
2023-02-06T14:23:59.160Z,70.46
2023-02-06T14:26:29.108Z,70.32
2023-02-06T14:29:19.293Z,70.81
2023-02-06T14:32:25.769Z,70.39
2023-02-06T14:35:19.688Z,71.32
2023-02-06T14:38:18.621Z,70.61
2023-02-06T14:40:51.750Z,71.52
2023-02-06T14:43:23.205Z,71.69
2023-02-06T14:46:07.113Z,71.59
2023-02-06T14:48:41.228Z,72.69
2023-02-06T14:51:17.985Z,72.36
2023-02-06T14:54:01.755Z,74.27
2023-02-06T14:56:37.518Z,74.47
2023-02-06T14:59:13.590Z,74.75
2023-02-06T15:01:42.087Z,74.38
2023-02-06T15:04:15.284Z,74.55
2023-02-06T15:07:09.808Z,75.37
2023-02-06T15:09:40.443Z,74.45
2023-02-06T15:12:24.747Z,74.18
2023-02-06T15:29:50.216Z,74.92
2023-02-06T15:32:32.600Z,74.85
2023-02-06T15:35:01.169Z,74.42
2023-02-06T15:37:29.496Z,73.32
2023-02-06T15:40:19.649Z,73.54
2023-02-06T15:42:50.603Z,73.01
2023-02-06T15:45:26.417Z,74.04
2023-02-06T15:47:55.071Z,73.79
2023-02-06T15:50:28.478Z,74.07
2023-02-06T15:52:56.401Z,74.59
2023-02-06T15:55:31.457Z,74.49
2023-02-06T15:58:00.605Z,75.35
2023-02-06T16:00:32.920Z,74.94
2023-02-06T16:03:04.838Z,74.09
2023-02-06T16:05:38.419Z,74.00
2023-02-06T16:08:10.917Z,74.32
2023-02-06T16:10:39.849Z,73.56
2023-02-06T16:13:14.954Z,72.30
2023-02-06T16:16:03.283Z,71.71
2023-02-06T16:18:32.827Z,71.68
2023-02-06T16:21:21.049Z,71.20
2023-02-06T16:24:06.882Z,70.95
2023-02-06T16:26:52.240Z,69.75
2023-02-06T16:29:31.970Z,69.96
2023-02-06T16:32:23.417Z,70.21
2023-02-06T16:34:50.651Z,70.93
2023-02-06T16:37:23.286Z,71.66
2023-02-06T16:39:50.437Z,72.78
2023-02-06T16:42:27.120Z,73.38
2023-02-06T16:44:59.587Z,74.06
2023-02-06T16:47:26.870Z,74.82
2023-02-06T16:49:53.888Z,74.86
2023-02-06T16:52:23.972Z,74.66
2023-02-06T16:54:51.081Z,74.70
2023-02-06T16:57:45.533Z,74.28
2023-02-06T17:00:22.062Z,74.81
2023-02-06T17:02:52.063Z,74.03
2023-02-06T17:05:21.337Z,74.49
2023-02-06T17:07:51.127Z,74.33
2023-02-06T17:10:21.475Z,73.91
2023-02-06T17:12:49.243Z,74.00
2023-02-06T17:15:18.465Z,74.23
2023-02-06T17:17:46.132Z,74.98
2023-02-06T17:20:29.116Z,75.34
2023-02-06T17:22:55.941Z,75.99
2023-02-06T17:25:22.841Z,76.63
2023-02-06T17:27:50.259Z,76.72
2023-02-06T17:30:19.785Z,76.90
2023-02-06T17:32:47.181Z,75.76
2023-02-06T17:35:14.364Z,75.81
2023-02-06T17:37:41.257Z,76.27
2023-02-06T17:40:09.713Z,76.29
2023-02-06T17:42:36.576Z,75.88
2023-02-06T17:45:03.749Z,76.12
2023-02-06T17:47:31.025Z,75.44
2023-02-06T17:49:58.003Z,76.08
2023-02-06T17:52:24.884Z,76.37
2023-02-06T17:54:51.883Z,77.32
2023-02-06T17:57:18.773Z,77.06
2023-02-06T17:59:45.631Z,77.47
2023-02-06T18:02:14.710Z,76.51
2023-02-06T18:04:41.544Z,76.66
2023-02-06T18:07:08.453Z,76.66
2023-02-06T18:09:35.456Z,77.05
2023-02-06T18:12:02.437Z,77.27
2023-02-06T18:14:29.294Z,77.25
2023-02-06T18:16:56.083Z,77.71
2023-02-06T18:19:24.950Z,78.15
2023-02-06T18:21:51.832Z,77.58
2023-02-06T18:24:18.737Z,78.22
2023-02-06T18:26:46.955Z,78.33
2023-02-06T18:29:13.823Z,78.34
2023-02-06T18:31:40.732Z,78.77
2023-02-06T18:34:08.397Z,78.93
2023-02-06T18:36:36.640Z,79.52
2023-02-06T18:39:05.360Z,78.91
2023-02-06T18:41:50.678Z,79.15
2023-02-06T18:44:17.572Z,79.39
2023-02-06T18:46:44.685Z,79.54
2023-02-06T18:49:11.545Z,80.42
2023-02-06T18:51:38.872Z,79.78
2023-02-06T18:54:07.873Z,80.51
2023-02-06T18:56:35.011Z,79.29
2023-02-06T18:59:05.658Z,79.69
2023-02-06T19:01:33.192Z,80.09
2023-02-06T19:04:00.143Z,79.42
2023-02-06T19:06:32.163Z,79.99
2023-02-06T19:08:59.595Z,80.46
2023-02-06T19:11:27.102Z,80.58
2023-02-06T19:13:54.871Z,79.74
2023-02-06T19:16:22.174Z,80.13
2023-02-06T19:18:49.671Z,80.47
2023-02-06T19:21:19.442Z,80.46
2023-02-06T19:23:52.606Z,80.62
2023-02-06T19:26:19.775Z,80.35
2023-02-06T19:28:47.174Z,79.81
2023-02-06T19:31:15.434Z,79.97
2023-02-06T19:33:42.513Z,79.97
2023-02-06T19:36:12.530Z,80.39
2023-02-06T19:38:40.407Z,79.98
2023-02-06T19:41:14.087Z,79.73
2023-02-06T19:43:41.738Z,80.71
2023-02-06T19:46:12.248Z,79.47
2023-02-06T19:48:42.516Z,80.55
2023-02-06T19:51:21.879Z,79.65
2023-02-06T19:53:50.471Z,80.57
2023-02-06T19:56:23.917Z,79.91
2023-02-06T19:59:23.906Z,80.58
2023-02-06T20:01:56.557Z,80.50
2023-02-06T20:04:26.643Z,80.03
2023-02-06T20:06:55.742Z,79.96
2023-02-06T20:09:23.853Z,79.26
2023-02-06T20:11:51.313Z,80.55
2023-02-06T20:14:19.233Z,80.14
2023-02-06T20:16:47.044Z,80.38
2023-02-06T20:19:18.661Z,80.44
2023-02-06T20:21:48.406Z,79.69
2023-02-06T20:24:18.682Z,79.91
2023-02-06T20:26:45.764Z,79.23
2023-02-06T20:29:22.415Z,79.33
2023-02-06T20:31:50.354Z,78.77
2023-02-06T20:34:18.539Z,78.83
2023-02-06T20:36:46.403Z,79.41
2023-02-06T20:39:14.572Z,79.11
2023-02-06T20:41:42.415Z,79.41
2023-02-06T20:44:10.630Z,79.37
2023-02-06T20:46:37.713Z,79.04
2023-02-06T20:49:09.272Z,79.77
2023-02-06T20:51:36.905Z,79.13
2023-02-06T20:54:04.073Z,79.53
2023-02-06T20:56:31.360Z,78.88
2023-02-06T20:59:01.345Z,79.31
2023-02-06T21:01:31.693Z,79.59
2023-02-06T21:04:03.197Z,78.55
2023-02-06T21:06:31.388Z,79.02
2023-02-06T21:09:00.336Z,78.57
2023-02-06T21:11:30.251Z,79.09
2023-02-06T21:13:59.066Z,79.20
2023-02-06T21:16:27.280Z,78.93
2023-02-06T21:18:55.207Z,79.44
2023-02-06T21:21:22.147Z,78.72
2023-02-06T21:23:49.616Z,78.50
2023-02-06T21:26:18.331Z,78.69
2023-02-06T21:28:48.750Z,78.54
2023-02-06T21:31:21.566Z,78.59
2023-02-06T21:33:49.957Z,78.95
2023-02-06T21:36:17.105Z,79.00
2023-02-06T21:38:44.686Z,79.20
2023-02-06T21:41:17.332Z,79.27
2023-02-06T21:43:45.505Z,79.03
2023-02-06T21:46:13.350Z,79.53
2023-02-06T21:48:41.238Z,79.63
2023-02-06T21:51:14.058Z,79.44
2023-02-06T21:53:42.457Z,78.95
2023-02-06T21:56:14.145Z,78.95
2023-02-06T21:58:41.197Z,79.11
2023-02-06T22:01:13.175Z,79.66
2023-02-06T22:03:40.169Z,79.86
2023-02-06T22:06:11.867Z,80.17
2023-02-06T22:08:42.696Z,80.18
2023-02-06T22:11:30.135Z,79.79
2023-02-06T22:13:59.331Z,80.61
2023-02-06T22:16:26.662Z,80.03
2023-02-06T22:18:53.701Z,80.65
2023-02-06T22:21:23.975Z,80.85
2023-02-06T22:23:51.870Z,80.44
2023-02-06T22:26:21.185Z,80.65
2023-02-06T22:28:48.371Z,80.93
2023-02-06T22:31:28.417Z,81.36
2023-02-06T22:33:55.689Z,81.84
2023-02-06T22:36:25.464Z,81.84
2023-02-06T22:38:58.458Z,81.01
2023-02-06T22:41:25.772Z,81.07
2023-02-06T22:43:52.870Z,80.71
2023-02-06T22:46:19.786Z,81.32
2023-02-06T22:48:47.266Z,81.31
2023-02-06T22:51:14.234Z,80.90
2023-02-06T22:53:41.655Z,80.55
2023-02-06T22:56:31.421Z,81.67
2023-02-06T22:59:12.909Z,81.35
2023-02-06T23:01:54.937Z,81.11
2023-02-06T23:04:28.311Z,79.31
2023-02-06T23:06:56.177Z,80.31
2023-02-06T23:09:26.905Z,80.27
2023-02-06T23:11:54.661Z,81.01
2023-02-06T23:14:21.710Z,80.42
2023-02-06T23:16:48.823Z,79.89
2023-02-06T23:19:17.562Z,80.37
2023-02-06T23:21:46.241Z,80.19
2023-02-06T23:24:14.301Z,80.27
2023-02-06T23:26:43.805Z,80.32
2023-02-06T23:29:15.793Z,80.11
2023-02-06T23:31:43.284Z,80.14
2023-02-06T23:34:10.827Z,79.84
2023-02-06T23:36:37.959Z,80.41
2023-02-06T23:39:05.695Z,79.01
2023-02-06T23:41:33.168Z,79.72
2023-02-06T23:44:02.775Z,79.84
2023-02-06T23:46:31.899Z,79.61
2023-02-06T23:48:59.437Z,79.17
2023-02-06T23:51:26.828Z,79.43
2023-02-06T23:53:54.048Z,79.40
2023-02-06T23:56:24.496Z,79.41
2023-02-06T23:58:52.692Z,79.54
